PWSweather.com
Personal Weather Stations
Station Observations
REBOX73
Petalia At Mount Pantokrator, CorfuGR 49081

Petalia At Mount PantokratorCorfuGR 49081

Lat: 39.747915, Lon: 19.841466

Elevation: 2132

Station Type: ws1080

http://pantokratoras-kerkyra.meteoclub.gr/

Latest ConditionsUpdated 11:30:01 AM GMT+01:01 Thursday, May 5, 2016
Currently Today's Max Today's Min Today's Average
Temperature 63.5°F17.5°C 63.5°F17.5°C 48.9°F9.4°C 53.5°F11.9°C
Dew Point 41.2°F5.1°C 46.0°F7.8°C 36.7°F2.6°C 42.0°F5.6°C
Winds 0.1 mph N0.2 kmh N 5.3 mph S8.5 kmh S - 0.8 mph 1.3 kmh
Wind Gusts 0.7 mph1.1 kmh 14.5 mph23.3 kmh - -
Humidity 44% 86% 38% 67%
Pressure 29.90 in1012.5 mb 29.91 in1012.9 mb 29.80 in1009.1 mb -
Hour Temp Dew Point Humidity Winds Wind Gusts Pressure Precip Precip Rate Daily Precip Total
11:30 AM 63.5°F17.5°C 41.2°F5.1°C 44% 0.1 mph N0.2 kmh N 0.7 mph1.1 kmh 29.90 in1012.5 mb 0.00 in0.0 mm 0.00 in0.0 mm 0.00 in0.0 mm
11:15 AM 63.5°F17.5°C 37.5°F3.1°C 38% Calm Calm -- 29.90 in1012.5 mb 0.00 in0.0 mm 0.00 in0.0 mm 0.00 in0.0 mm
11:00 AM 61.7°F16.5°C 42.9°F6.1°C 50% 0.6 mph N1.0 kmh N 1.6 mph2.6 kmh 29.90 in1012.5 mb 0.00 in0.0 mm 0.00 in0.0 mm 0.00 in0.0 mm
10:45 AM 60.1°F15.6°C 41.9°F5.5°C 51% 1.2 mph W1.9 kmh W 2.2 mph3.5 kmh 29.91 in1012.9 mb 0.00 in0.0 mm 0.00 in0.0 mm 0.00 in0.0 mm
10:30 AM 59.2°F15.1°C 41.1°F5.1°C 51% 0.7 mph N1.1 kmh N 2.2 mph3.5 kmh 29.90 in1012.5 mb 0.00 in0.0 mm 0.00 in0.0 mm 0.00 in0.0 mm
10:15 AM 61.0°F16.1°C 38.9°F3.8°C 44% 0.1 mph SW0.2 kmh SW 0.7 mph1.1 kmh 29.90 in1012.5 mb 0.00 in0.0 mm 0.00 in0.0 mm 0.00 in0.0 mm
10:00 AM 60.4°F15.8°C 40.1°F4.5°C 47% Calm Calm -- 29.90 in1012.5 mb 0.00 in0.0 mm 0.00 in0.0 mm 0.00 in0.0 mm
09:45 AM 61.9°F16.6°C 39.2°F4.0°C 43% Calm Calm -- 29.89 in1012.2 mb 0.00 in0.0 mm 0.00 in0.0 mm 0.00 in0.0 mm
09:30 AM 60.8°F16.0°C 38.8°F3.8°C 44% Calm Calm -- 29.89 in1012.2 mb 0.00 in0.0 mm 0.00 in0.0 mm 0.00 in0.0 mm
09:15 AM 60.3°F15.7°C 38.3°F3.5°C 44% Calm Calm -- 29.89 in1012.2 mb 0.00 in0.0 mm 0.00 in0.0 mm 0.00 in0.0 mm
09:00 AM 59.9°F15.5°C 37.4°F3.0°C 43% Calm Calm -- 29.88 in1011.9 mb 0.00 in0.0 mm 0.00 in0.0 mm 0.00 in0.0 mm
08:45 AM 59.2°F15.1°C 36.7°F2.6°C 43% Calm Calm -- 29.88 in1011.9 mb 0.00 in0.0 mm 0.00 in0.0 mm 0.00 in0.0 mm
08:30 AM 59.2°F15.1°C 41.6°F5.3°C 52% 0.1 mph SW0.2 kmh SW 0.7 mph1.1 kmh 29.88 in1011.9 mb 0.00 in0.0 mm 0.00 in0.0 mm 0.00 in0.0 mm
08:15 AM 57.6°F14.2°C 40.6°F4.8°C 53% 0.1 mph S0.2 kmh S 0.7 mph1.1 kmh 29.87 in1011.5 mb 0.00 in0.0 mm 0.00 in0.0 mm 0.00 in0.0 mm
08:00 AM 57.4°F14.1°C 42.3°F5.7°C 57% 0.6 mph NW1.0 kmh NW 2.2 mph3.5 kmh 29.87 in1011.5 mb 0.00 in0.0 mm 0.00 in0.0 mm 0.00 in0.0 mm
07:45 AM 56.7°F13.7°C 42.9°F6.1°C 60% 0.7 mph SW1.1 kmh SW 1.6 mph2.6 kmh 29.87 in1011.5 mb 0.00 in0.0 mm 0.00 in0.0 mm 0.00 in0.0 mm
07:30 AM 55.2°F12.9°C 42.4°F5.8°C 62% 0.1 mph NE0.2 kmh NE 0.7 mph1.1 kmh 29.87 in1011.5 mb 0.00 in0.0 mm 0.00 in0.0 mm 0.00 in0.0 mm
07:15 AM 53.8°F12.1°C 41.5°F5.3°C 63% 0.1 mph NE0.2 kmh NE 0.7 mph1.1 kmh 29.87 in1011.5 mb 0.00 in0.0 mm 0.00 in0.0 mm 0.00 in0.0 mm
07:00 AM 51.8°F11.0°C 42.0°F5.6°C 69% 0.1 mph SSW0.2 kmh SSW 0.7 mph1.1 kmh 29.86 in1011.2 mb 0.00 in0.0 mm 0.00 in0.0 mm 0.00 in0.0 mm
06:45 AM 51.3°F10.7°C 41.4°F5.2°C 69% 0.5 mph NW0.8 kmh NW 2.2 mph3.5 kmh 29.87 in1011.5 mb 0.00 in0.0 mm 0.00 in0.0 mm 0.00 in0.0 mm
06:30 AM 50.0°F10.0°C 42.0°F5.6°C 74% Calm Calm -- 29.86 in1011.2 mb 0.00 in0.0 mm 0.00 in0.0 mm 0.00 in0.0 mm
06:15 AM 50.0°F10.0°C 41.7°F5.4°C 73% Calm Calm -- 29.86 in1011.2 mb 0.00 in0.0 mm 0.00 in0.0 mm 0.00 in0.0 mm
06:00 AM 49.8°F9.9°C 40.8°F4.9°C 71% 0.5 mph N0.8 kmh N 3.1 mph5.0 kmh 29.86 in1011.2 mb 0.00 in0.0 mm 0.00 in0.0 mm 0.00 in0.0 mm
05:45 AM 49.5°F9.7°C 40.5°F4.7°C 71% 0.3 mph ESE0.5 kmh ESE 1.6 mph2.6 kmh 29.84 in1010.5 mb 0.00 in0.0 mm 0.00 in0.0 mm 0.00 in0.0 mm
05:30 AM 49.6°F9.8°C 39.9°F4.4°C 69% 0.6 mph E1.0 kmh E 3.8 mph6.1 kmh 29.84 in1010.5 mb 0.00 in0.0 mm 0.00 in0.0 mm 0.00 in0.0 mm
05:15 AM 49.3°F9.6°C 40.3°F4.6°C 71% 0.1 mph NW0.2 kmh NW 0.7 mph1.1 kmh 29.84 in1010.5 mb 0.00 in0.0 mm 0.00 in0.0 mm 0.00 in0.0 mm
05:00 AM 50.0°F10.0°C 41.0°F5.0°C 71% Calm Calm -- 29.83 in1010.2 mb 0.00 in0.0 mm 0.00 in0.0 mm 0.00 in0.0 mm
04:45 AM 48.9°F9.4°C 41.0°F5.0°C 74% Calm Calm -- 29.83 in1010.2 mb 0.00 in0.0 mm 0.00 in0.0 mm 0.00 in0.0 mm
04:30 AM 49.3°F9.6°C 41.7°F5.4°C 75% 0.5 mph E0.8 kmh E 3.1 mph5.0 kmh 29.83 in1010.2 mb 0.00 in0.0 mm 0.00 in0.0 mm 0.00 in0.0 mm
04:15 AM 50.2°F10.1°C 42.6°F5.9°C 75% 5.3 mph S8.5 kmh S 14.5 mph23.3 kmh 29.82 in1009.8 mb 0.00 in0.0 mm 0.00 in0.0 mm 0.00 in0.0 mm
04:00 AM 49.3°F9.6°C 42.4°F5.8°C 77% 1.4 mph WSW2.3 kmh WSW 5.4 mph8.7 kmh 29.81 in1009.5 mb 0.00 in0.0 mm 0.00 in0.0 mm 0.00 in0.0 mm
03:45 AM 49.5°F9.7°C 42.9°F6.1°C 78% 3.0 mph SSW4.8 kmh SSW 5.4 mph8.7 kmh 29.81 in1009.5 mb 0.00 in0.0 mm 0.00 in0.0 mm 0.00 in0.0 mm
03:30 AM 48.9°F9.4°C 43.0°F6.1°C 80% 2.8 mph S4.5 kmh S 6.9 mph11.1 kmh 29.81 in1009.5 mb 0.00 in0.0 mm 0.00 in0.0 mm 0.00 in0.0 mm
03:15 AM 49.5°F9.7°C 43.6°F6.4°C 80% 2.5 mph S4.0 kmh S 5.4 mph8.7 kmh 29.81 in1009.5 mb 0.00 in0.0 mm 0.00 in0.0 mm 0.00 in0.0 mm
03:00 AM 49.3°F9.6°C 44.3°F6.8°C 83% 1.3 mph SSE2.1 kmh SSE 4.5 mph7.2 kmh 29.81 in1009.5 mb 0.00 in0.0 mm 0.00 in0.0 mm 0.00 in0.0 mm
02:45 AM 49.3°F9.6°C 44.3°F6.8°C 83% 2.9 mph ESE4.7 kmh ESE 7.6 mph12.2 kmh 29.80 in1009.1 mb 0.00 in0.0 mm 0.00 in0.0 mm 0.00 in0.0 mm
02:30 AM 48.9°F9.4°C 43.4°F6.3°C 81% 0.8 mph E1.3 kmh E 3.8 mph6.1 kmh 29.80 in1009.1 mb 0.00 in0.0 mm 0.00 in0.0 mm 0.00 in0.0 mm
02:15 AM 49.6°F9.8°C 43.4°F6.3°C 79% 1.6 mph E2.6 kmh E 5.4 mph8.7 kmh 29.81 in1009.5 mb 0.00 in0.0 mm 0.00 in0.0 mm 0.00 in0.0 mm
02:00 AM 50.0°F10.0°C 44.4°F6.9°C 81% 2.9 mph ESE4.7 kmh ESE 8.3 mph13.4 kmh 29.80 in1009.1 mb 0.00 in0.0 mm 0.00 in0.0 mm 0.00 in0.0 mm
01:45 AM 50.0°F10.0°C 45.0°F7.2°C 83% 1.2 mph E1.9 kmh E 3.8 mph6.1 kmh 29.81 in1009.5 mb 0.00 in0.0 mm 0.00 in0.0 mm 0.00 in0.0 mm
01:30 AM 49.8°F9.9°C 45.2°F7.3°C 84% 1.3 mph E2.1 kmh E 6.9 mph11.1 kmh 29.81 in1009.5 mb 0.00 in0.0 mm 0.00 in0.0 mm 0.00 in0.0 mm
01:15 AM 49.3°F9.6°C 45.3°F7.4°C 86% 0.2 mph E0.3 kmh E 0.7 mph1.1 kmh 29.81 in1009.5 mb 0.00 in0.0 mm 0.00 in0.0 mm 0.00 in0.0 mm
01:00 AM 48.9°F9.4°C 44.9°F7.2°C 86% 0.4 mph NNE0.6 kmh NNE 2.2 mph3.5 kmh 29.81 in1009.5 mb 0.00 in0.0 mm 0.00 in0.0 mm 0.00 in0.0 mm
12:45 AM 49.1°F9.5°C 45.1°F7.3°C 86% 0.8 mph NE1.3 kmh NE 3.1 mph5.0 kmh 29.81 in1009.5 mb 0.00 in0.0 mm 0.00 in0.0 mm 0.00 in0.0 mm
12:30 AM 49.5°F9.7°C 45.1°F7.3°C 85% 0.2 mph SE0.3 kmh SE 2.2 mph3.5 kmh 29.82 in1009.8 mb 0.00 in0.0 mm 0.00 in0.0 mm 0.00 in0.0 mm
12:15 AM 50.2°F10.1°C 45.9°F7.7°C 85% 0.1 mph S0.2 kmh S 0.7 mph1.1 kmh 29.83 in1010.2 mb 0.00 in0.0 mm 0.00 in0.0 mm 0.00 in0.0 mm
12:00 AM 50.0°F10.0°C 46.0°F7.8°C 86% 0.1 mph N0.2 kmh N 1.6 mph2.6 kmh 29.83 in1010.2 mb 0.00 in0.0 mm 0.00 in0.0 mm 0.00 in0.0 mm